sensor_id;sensor_type;location;lat;lon;timestamp;temperature;humidity
68274;SHT30;55104;47.356;19.448;2023-11-21T00:00:09;2.40;99.99
68274;SHT30;55104;47.356;19.448;2023-11-21T00:03:14;2.43;99.99
68274;SHT30;55104;47.356;19.448;2023-11-21T00:06:17;2.39;99.99
68274;SHT30;55104;47.356;19.448;2023-11-21T00:09:20;2.33;99.99
68274;SHT30;55104;47.356;19.448;2023-11-21T00:12:22;2.35;99.99
68274;SHT30;55104;47.356;19.448;2023-11-21T00:15:24;2.35;99.99
68274;SHT30;55104;47.356;19.448;2023-11-21T00:18:28;2.30;99.99
68274;SHT30;55104;47.356;19.448;2023-11-21T00:21:30;2.26;99.99
68274;SHT30;55104;47.356;19.448;2023-11-21T00:24:32;2.29;99.87
68274;SHT30;55104;47.356;19.448;2023-11-21T00:27:35;2.21;99.70
68274;SHT30;55104;47.356;19.448;2023-11-21T00:30:38;2.19;99.89
68274;SHT30;55104;47.356;19.448;2023-11-21T00:33:40;2.19;99.99
68274;SHT30;55104;47.356;19.448;2023-11-21T00:36:43;2.21;99.99
68274;SHT30;55104;47.356;19.448;2023-11-21T00:39:45;2.18;99.99
68274;SHT30;55104;47.356;19.448;2023-11-21T00:42:47;2.15;99.99
68274;SHT30;55104;47.356;19.448;2023-11-21T00:45:50;2.12;99.99
68274;SHT30;55104;47.356;19.448;2023-11-21T00:48:53;2.12;99.99
68274;SHT30;55104;47.356;19.448;2023-11-21T00:51:56;2.12;99.99
68274;SHT30;55104;47.356;19.448;2023-11-21T00:55:01;2.09;99.99
68274;SHT30;55104;47.356;19.448;2023-11-21T00:58:05;2.07;99.99
68274;SHT30;55104;47.356;19.448;2023-11-21T01:01:09;2.05;99.99
68274;SHT30;55104;47.356;19.448;2023-11-21T01:04:11;2.08;99.99
68274;SHT30;55104;47.356;19.448;2023-11-21T01:07:15;2.05;99.99
68274;SHT30;55104;47.356;19.448;2023-11-21T01:10:18;2.18;99.99
68274;SHT30;55104;47.356;19.448;2023-11-21T01:13:20;2.15;99.99
68274;SHT30;55104;47.356;19.448;2023-11-21T01:16:22;2.15;99.99
68274;SHT30;55104;47.356;19.448;2023-11-21T01:19:26;2.19;99.99
68274;SHT30;55104;47.356;19.448;2023-11-21T01:22:28;2.19;99.99
68274;SHT30;55104;47.356;19.448;2023-11-21T01:25:30;2.21;99.99
68274;SHT30;55104;47.356;19.448;2023-11-21T01:28:33;2.29;99.99
68274;SHT30;55104;47.356;19.448;2023-11-21T01:31:35;2.28;99.99
68274;SHT30;55104;47.356;19.448;2023-11-21T01:34:37;2.29;99.99
68274;SHT30;55104;47.356;19.448;2023-11-21T01:37:40;2.36;99.99
68274;SHT30;55104;47.356;19.448;2023-11-21T01:40:42;2.40;99.99
68274;SHT30;55104;47.356;19.448;2023-11-21T01:43:44;2.43;99.99
68274;SHT30;55104;47.356;19.448;2023-11-21T01:46:47;2.35;99.99
68274;SHT30;55104;47.356;19.448;2023-11-21T01:49:50;2.37;99.99
68274;SHT30;55104;47.356;19.448;2023-11-21T01:52:52;2.36;99.99
68274;SHT30;55104;47.356;19.448;2023-11-21T01:55:55;2.42;99.99
68274;SHT30;55104;47.356;19.448;2023-11-21T01:59:00;2.43;99.99
68274;SHT30;55104;47.356;19.448;2023-11-21T02:02:04;2.45;99.99
68274;SHT30;55104;47.356;19.448;2023-11-21T02:05:08;2.47;99.99
68274;SHT30;55104;47.356;19.448;2023-11-21T02:08:11;2.52;99.99
68274;SHT30;55104;47.356;19.448;2023-11-21T02:11:13;2.53;99.99
68274;SHT30;55104;47.356;19.448;2023-11-21T02:14:15;2.53;99.99
68274;SHT30;55104;47.356;19.448;2023-11-21T02:17:18;2.53;99.99
68274;SHT30;55104;47.356;19.448;2023-11-21T02:20:22;2.57;99.99
68274;SHT30;55104;47.356;19.448;2023-11-21T02:23:27;2.58;99.99
68274;SHT30;55104;47.356;19.448;2023-11-21T02:26:31;2.61;99.99
68274;SHT30;55104;47.356;19.448;2023-11-21T02:29:33;2.64;99.99
68274;SHT30;55104;47.356;19.448;2023-11-21T02:32:35;2.72;99.99
68274;SHT30;55104;47.356;19.448;2023-11-21T02:35:49;2.79;99.99
68274;SHT30;55104;47.356;19.448;2023-11-21T02:38:54;2.74;99.99
68274;SHT30;55104;47.356;19.448;2023-11-21T02:41:56;2.76;99.99
68274;SHT30;55104;47.356;19.448;2023-11-21T02:44:58;2.72;99.99
68274;SHT30;55104;47.356;19.448;2023-11-21T02:48:01;2.73;99.99
68274;SHT30;55104;47.356;19.448;2023-11-21T02:51:03;2.77;99.99
68274;SHT30;55104;47.356;19.448;2023-11-21T02:54:06;2.72;99.99
68274;SHT30;55104;47.356;19.448;2023-11-21T02:57:10;2.74;99.99
68274;SHT30;55104;47.356;19.448;2023-11-21T03:00:12;2.79;99.99
68274;SHT30;55104;47.356;19.448;2023-11-21T03:03:19;2.80;99.99
68274;SHT30;55104;47.356;19.448;2023-11-21T03:06:21;2.87;99.99
68274;SHT30;55104;47.356;19.448;2023-11-21T03:09:24;2.91;99.99
68274;SHT30;55104;47.356;19.448;2023-11-21T03:12:26;2.91;99.99
68274;SHT30;55104;47.356;19.448;2023-11-21T03:15:28;2.97;99.99
68274;SHT30;55104;47.356;19.448;2023-11-21T03:18:32;3.00;99.99
68274;SHT30;55104;47.356;19.448;2023-11-21T03:21:34;2.97;99.99
68274;SHT30;55104;47.356;19.448;2023-11-21T03:24:37;3.02;99.99
68274;SHT30;55104;47.356;19.448;2023-11-21T03:27:40;3.02;99.99
68274;SHT30;55104;47.356;19.448;2023-11-21T03:30:43;3.00;99.99
68274;SHT30;55104;47.356;19.448;2023-11-21T03:33:46;3.00;99.99
68274;SHT30;55104;47.356;19.448;2023-11-21T03:36:49;2.98;99.99
68274;SHT30;55104;47.356;19.448;2023-11-21T03:39:51;3.00;99.99
68274;SHT30;55104;47.356;19.448;2023-11-21T03:42:54;3.04;99.99
68274;SHT30;55104;47.356;19.448;2023-11-21T03:45:56;3.01;99.99
68274;SHT30;55104;47.356;19.448;2023-11-21T03:48:58;3.04;99.99
68274;SHT30;55104;47.356;19.448;2023-11-21T03:52:01;3.05;99.99
68274;SHT30;55104;47.356;19.448;2023-11-21T03:55:07;3.00;99.99
68274;SHT30;55104;47.356;19.448;2023-11-21T03:58:09;2.98;99.99
68274;SHT30;55104;47.356;19.448;2023-11-21T04:01:11;2.97;99.99
68274;SHT30;55104;47.356;19.448;2023-11-21T04:04:14;2.97;99.99
68274;SHT30;55104;47.356;19.448;2023-11-21T04:07:16;2.97;99.99
68274;SHT30;55104;47.356;19.448;2023-11-21T04:10:19;2.97;99.99
68274;SHT30;55104;47.356;19.448;2023-11-21T04:13:21;3.00;99.99
68274;SHT30;55104;47.356;19.448;2023-11-21T04:16:24;3.04;99.99
68274;SHT30;55104;47.356;19.448;2023-11-21T04:19:26;3.07;99.99
68274;SHT30;55104;47.356;19.448;2023-11-21T04:22:28;3.07;99.99
68274;SHT30;55104;47.356;19.448;2023-11-21T04:25:30;3.02;99.99
68274;SHT30;55104;47.356;19.448;2023-11-21T04:28:32;3.02;99.99
68274;SHT30;55104;47.356;19.448;2023-11-21T04:31:35;3.00;99.99
68274;SHT30;55104;47.356;19.448;2023-11-21T04:34:37;3.01;99.99
68274;SHT30;55104;47.356;19.448;2023-11-21T04:37:39;2.97;99.99
68274;SHT30;55104;47.356;19.448;2023-11-21T04:40:41;2.97;99.99
68274;SHT30;55104;47.356;19.448;2023-11-21T04:43:43;2.95;99.99
68274;SHT30;55104;47.356;19.448;2023-11-21T04:46:46;3.01;99.99
68274;SHT30;55104;47.356;19.448;2023-11-21T04:49:48;3.04;99.99
68274;SHT30;55104;47.356;19.448;2023-11-21T04:52:50;3.04;99.99
68274;SHT30;55104;47.356;19.448;2023-11-21T04:55:53;3.07;99.99
68274;SHT30;55104;47.356;19.448;2023-11-21T04:58:55;3.08;99.99
68274;SHT30;55104;47.356;19.448;2023-11-21T05:01:57;3.07;99.99
68274;SHT30;55104;47.356;19.448;2023-11-21T05:05:00;3.13;99.99
68274;SHT30;55104;47.356;19.448;2023-11-21T05:08:02;3.19;99.99
68274;SHT30;55104;47.356;19.448;2023-11-21T05:11:05;3.21;99.99
68274;SHT30;55104;47.356;19.448;2023-11-21T05:14:09;3.23;99.99
68274;SHT30;55104;47.356;19.448;2023-11-21T05:17:11;3.28;99.99
68274;SHT30;55104;47.356;19.448;2023-11-21T05:20:14;3.35;99.99
68274;SHT30;55104;47.356;19.448;2023-11-21T05:23:20;3.38;99.99
68274;SHT30;55104;47.356;19.448;2023-11-21T05:26:22;3.40;99.99
68274;SHT30;55104;47.356;19.448;2023-11-21T05:29:24;3.38;99.99
68274;SHT30;55104;47.356;19.448;2023-11-21T05:32:27;3.42;99.99
68274;SHT30;55104;47.356;19.448;2023-11-21T05:35:30;3.42;99.99
68274;SHT30;55104;47.356;19.448;2023-11-21T05:38:33;3.49;99.99
68274;SHT30;55104;47.356;19.448;2023-11-21T05:41:35;3.52;99.99
68274;SHT30;55104;47.356;19.448;2023-11-21T05:44:41;3.53;99.99
68274;SHT30;55104;47.356;19.448;2023-11-21T05:47:44;3.56;99.99
68274;SHT30;55104;47.356;19.448;2023-11-21T05:50:49;3.55;99.99
68274;SHT30;55104;47.356;19.448;2023-11-21T05:53:54;3.55;99.99
68274;SHT30;55104;47.356;19.448;2023-11-21T05:56:56;3.57;99.99
68274;SHT30;55104;47.356;19.448;2023-11-21T05:59:58;3.62;99.99
68274;SHT30;55104;47.356;19.448;2023-11-21T06:03:01;3.67;99.99
68274;SHT30;55104;47.356;19.448;2023-11-21T06:06:03;3.64;99.99
68274;SHT30;55104;47.356;19.448;2023-11-21T06:09:06;3.67;99.99
68274;SHT30;55104;47.356;19.448;2023-11-21T06:12:11;3.76;99.99
68274;SHT30;55104;47.356;19.448;2023-11-21T06:15:13;3.78;99.99
68274;SHT30;55104;47.356;19.448;2023-11-21T06:18:16;3.76;99.99
68274;SHT30;55104;47.356;19.448;2023-11-21T06:21:21;3.78;99.99
68274;SHT30;55104;47.356;19.448;2023-11-21T06:24:23;3.81;99.99
68274;SHT30;55104;47.356;19.448;2023-11-21T06:27:25;3.85;99.99
68274;SHT30;55104;47.356;19.448;2023-11-21T06:30:28;3.85;99.99
68274;SHT30;55104;47.356;19.448;2023-11-21T06:33:34;3.88;99.99
68274;SHT30;55104;47.356;19.448;2023-11-21T06:36:36;3.97;99.99
68274;SHT30;55104;47.356;19.448;2023-11-21T06:39:38;3.98;99.99
68274;SHT30;55104;47.356;19.448;2023-11-21T06:42:41;4.04;99.99
68274;SHT30;55104;47.356;19.448;2023-11-21T06:45:43;4.09;99.99
68274;SHT30;55104;47.356;19.448;2023-11-21T06:48:46;4.12;99.99
68274;SHT30;55104;47.356;19.448;2023-11-21T06:51:48;4.16;99.99
68274;SHT30;55104;47.356;19.448;2023-11-21T06:54:50;4.21;99.99
68274;SHT30;55104;47.356;19.448;2023-11-21T06:57:52;4.33;99.99
68274;SHT30;55104;47.356;19.448;2023-11-21T07:00:55;4.36;99.99
68274;SHT30;55104;47.356;19.448;2023-11-21T07:03:57;4.36;99.99
68274;SHT30;55104;47.356;19.448;2023-11-21T07:06:59;4.39;99.99
68274;SHT30;55104;47.356;19.448;2023-11-21T07:10:02;4.48;99.99
68274;SHT30;55104;47.356;19.448;2023-11-21T07:13:05;4.50;99.99
68274;SHT30;55104;47.356;19.448;2023-11-21T07:16:08;4.57;99.99
68274;SHT30;55104;47.356;19.448;2023-11-21T07:19:12;4.61;99.99
68274;SHT30;55104;47.356;19.448;2023-11-21T07:22:14;4.70;99.99
68274;SHT30;55104;47.356;19.448;2023-11-21T07:25:17;4.77;99.99
68274;SHT30;55104;47.356;19.448;2023-11-21T07:28:19;4.81;99.99
68274;SHT30;55104;47.356;19.448;2023-11-21T07:31:22;4.87;99.99
68274;SHT30;55104;47.356;19.448;2023-11-21T07:34:27;4.92;99.99
68274;SHT30;55104;47.356;19.448;2023-11-21T07:37:29;4.98;99.97
68274;SHT30;55104;47.356;19.448;2023-11-21T07:40:31;5.05;99.90
68274;SHT30;55104;47.356;19.448;2023-11-21T07:43:35;5.16;99.60
68274;SHT30;55104;47.356;19.448;2023-11-21T07:46:37;5.25;99.31
68274;SHT30;55104;47.356;19.448;2023-11-21T07:49:40;5.26;99.27
68274;SHT30;55104;47.356;19.448;2023-11-21T07:52:44;5.33;99.12
68274;SHT30;55104;47.356;19.448;2023-11-21T07:55:47;5.36;99.07
68274;SHT30;55104;47.356;19.448;2023-11-21T07:58:49;5.46;98.96
68274;SHT30;55104;47.356;19.448;2023-11-21T08:01:55;5.54;98.66
68274;SHT30;55104;47.356;19.448;2023-11-21T08:04:57;5.53;98.64
68274;SHT30;55104;47.356;19.448;2023-11-21T08:07:59;5.66;98.40
68274;SHT30;55104;47.356;19.448;2023-11-21T08:11:02;5.69;98.25
68274;SHT30;55104;47.356;19.448;2023-11-21T08:14:05;5.67;98.35
68274;SHT30;55104;47.356;19.448;2023-11-21T08:17:08;5.69;98.45
68274;SHT30;55104;47.356;19.448;2023-11-21T08:20:12;5.71;98.62
68274;SHT30;55104;47.356;19.448;2023-11-21T08:23:15;5.81;98.36
68274;SHT30;55104;47.356;19.448;2023-11-21T08:26:21;5.84;98.04
68274;SHT30;55104;47.356;19.448;2023-11-21T08:29:24;5.87;98.23
68274;SHT30;55104;47.356;19.448;2023-11-21T08:32:27;5.93;97.87
68274;SHT30;55104;47.356;19.448;2023-11-21T08:35:29;6.01;98.03
68274;SHT30;55104;47.356;19.448;2023-11-21T08:38:32;6.05;97.85
68274;SHT30;55104;47.356;19.448;2023-11-21T08:41:34;6.09;98.19
68274;SHT30;55104;47.356;19.448;2023-11-21T08:44:36;6.15;98.04
68274;SHT30;55104;47.356;19.448;2023-11-21T08:47:40;6.24;98.01
68274;SHT30;55104;47.356;19.448;2023-11-21T08:50:42;6.30;97.54
68274;SHT30;55104;47.356;19.448;2023-11-21T08:53:45;6.36;97.43
68274;SHT30;55104;47.356;19.448;2023-11-21T08:56:48;6.39;97.27
68274;SHT30;55104;47.356;19.448;2023-11-21T08:59:50;6.43;97.18
68274;SHT30;55104;47.356;19.448;2023-11-21T09:02:57;6.43;97.16
68274;SHT30;55104;47.356;19.448;2023-11-21T09:06:00;6.52;97.30
68274;SHT30;55104;47.356;19.448;2023-11-21T09:09:02;6.58;97.06
68274;SHT30;55104;47.356;19.448;2023-11-21T09:12:07;6.69;96.66
68274;SHT30;55104;47.356;19.448;2023-11-21T09:15:09;6.70;96.77
68274;SHT30;55104;47.356;19.448;2023-11-21T09:18:13;6.66;96.69
68274;SHT30;55104;47.356;19.448;2023-11-21T09:21:17;6.70;96.65
68274;SHT30;55104;47.356;19.448;2023-11-21T09:24:19;6.83;96.33
68274;SHT30;55104;47.356;19.448;2023-11-21T09:27:21;6.81;96.26
68274;SHT30;55104;47.356;19.448;2023-11-21T09:30:24;6.94;95.89
68274;SHT30;55104;47.356;19.448;2023-11-21T09:33:26;6.90;96.04
68274;SHT30;55104;47.356;19.448;2023-11-21T09:36:29;6.85;96.11
68274;SHT30;55104;47.356;19.448;2023-11-21T09:39:33;6.85;96.60
68274;SHT30;55104;47.356;19.448;2023-11-21T09:42:40;6.87;96.82
68274;SHT30;55104;47.356;19.448;2023-11-21T09:45:54;6.88;96.73
68274;SHT30;55104;47.356;19.448;2023-11-21T09:49:00;6.87;96.74
68274;SHT30;55104;47.356;19.448;2023-11-21T09:52:03;6.88;97.22
68274;SHT30;55104;47.356;19.448;2023-11-21T09:55:07;6.91;96.87
68274;SHT30;55104;47.356;19.448;2023-11-21T09:58:10;6.94;97.01
68274;SHT30;55104;47.356;19.448;2023-11-21T10:01:16;6.94;97.06
68274;SHT30;55104;47.356;19.448;2023-11-21T10:04:18;6.91;97.44
68274;SHT30;55104;47.356;19.448;2023-11-21T10:07:23;6.98;97.21
68274;SHT30;55104;47.356;19.448;2023-11-21T10:10:25;6.95;97.28
68274;SHT30;55104;47.356;19.448;2023-11-21T10:13:29;6.97;97.32
68274;SHT30;55104;47.356;19.448;2023-11-21T10:16:33;6.97;97.34
68274;SHT30;55104;47.356;19.448;2023-11-21T10:19:36;6.98;97.37
68274;SHT30;55104;47.356;19.448;2023-11-21T10:22:43;6.99;97.33
68274;SHT30;55104;47.356;19.448;2023-11-21T10:25:45;7.02;97.58
68274;SHT30;55104;47.356;19.448;2023-11-21T10:29:01;7.07;97.46
68274;SHT30;55104;47.356;19.448;2023-11-21T10:32:06;7.05;97.55
68274;SHT30;55104;47.356;19.448;2023-11-21T10:35:09;7.08;97.27
68274;SHT30;55104;47.356;19.448;2023-11-21T10:38:13;7.14;97.20
68274;SHT30;55104;47.356;19.448;2023-11-21T10:41:17;7.16;97.36
68274;SHT30;55104;47.356;19.448;2023-11-21T10:44:20;7.19;96.87
68274;SHT30;55104;47.356;19.448;2023-11-21T10:47:24;7.20;96.73
68274;SHT30;55104;47.356;19.448;2023-11-21T10:50:26;7.27;96.36
68274;SHT30;55104;47.356;19.448;2023-11-21T10:53:28;7.29;96.12
68274;SHT30;55104;47.356;19.448;2023-11-21T10:56:31;7.33;95.49
68274;SHT30;55104;47.356;19.448;2023-11-21T10:59:37;7.36;95.32
68274;SHT30;55104;47.356;19.448;2023-11-21T11:02:41;7.46;94.89
68274;SHT30;55104;47.356;19.448;2023-11-21T11:05:44;7.46;95.11
68274;SHT30;55104;47.356;19.448;2023-11-21T11:08:55;7.50;94.84
68274;SHT30;55104;47.356;19.448;2023-11-21T11:11:58;7.50;94.49
68274;SHT30;55104;47.356;19.448;2023-11-21T11:15:01;7.56;94.28
68274;SHT30;55104;47.356;19.448;2023-11-21T11:18:05;7.59;94.31
68274;SHT30;55104;47.356;19.448;2023-11-21T11:21:23;7.57;94.52
68274;SHT30;55104;47.356;19.448;2023-11-21T11:24:52;7.63;93.75
68274;SHT30;55104;47.356;19.448;2023-11-21T11:34:44;7.80;94.02
68274;SHT30;55104;47.356;19.448;2023-11-21T11:37:49;7.80;93.90
68274;SHT30;55104;47.356;19.448;2023-11-21T11:40:54;7.80;94.21
68274;SHT30;55104;47.356;19.448;2023-11-21T11:43:56;7.84;93.99
68274;SHT30;55104;47.356;19.448;2023-11-21T11:47:00;7.87;94.07
68274;SHT30;55104;47.356;19.448;2023-11-21T11:53:22;7.99;93.38
68274;SHT30;55104;47.356;19.448;2023-11-21T11:56:31;8.05;93.52
68274;SHT30;55104;47.356;19.448;2023-11-21T12:03:20;8.08;94.01
68274;SHT30;55104;47.356;19.448;2023-11-21T12:06:33;8.18;93.79
68274;SHT30;55104;47.356;19.448;2023-11-21T12:09:37;8.19;93.87
68274;SHT30;55104;47.356;19.448;2023-11-21T12:12:42;8.21;93.87
68274;SHT30;55104;47.356;19.448;2023-11-21T12:15:45;8.26;93.70
68274;SHT30;55104;47.356;19.448;2023-11-21T12:18:48;8.28;93.64
68274;SHT30;55104;47.356;19.448;2023-11-21T12:21:50;8.30;93.54
68274;SHT30;55104;47.356;19.448;2023-11-21T12:24:54;8.37;93.43
68274;SHT30;55104;47.356;19.448;2023-11-21T12:27:56;8.37;93.72
68274;SHT30;55104;47.356;19.448;2023-11-21T12:30:59;8.30;93.67
68274;SHT30;55104;47.356;19.448;2023-11-21T12:34:16;8.33;93.28
68274;SHT30;55104;47.356;19.448;2023-11-21T12:37:18;8.35;93.65
68274;SHT30;55104;47.356;19.448;2023-11-21T12:40:20;8.33;93.75
68274;SHT30;55104;47.356;19.448;2023-11-21T12:43:25;8.39;93.31
68274;SHT30;55104;47.356;19.448;2023-11-21T12:46:27;8.40;93.77
68274;SHT30;55104;47.356;19.448;2023-11-21T12:49:32;8.37;93.75
68274;SHT30;55104;47.356;19.448;2023-11-21T12:52:36;8.40;93.61
68274;SHT30;55104;47.356;19.448;2023-11-21T12:55:41;8.43;93.62
68274;SHT30;55104;47.356;19.448;2023-11-21T12:58:45;8.43;93.53
68274;SHT30;55104;47.356;19.448;2023-11-21T13:01:54;8.46;93.94
68274;SHT30;55104;47.356;19.448;2023-11-21T13:05:01;8.49;93.59
68274;SHT30;55104;47.356;19.448;2023-11-21T13:08:09;8.54;93.70
68274;SHT30;55104;47.356;19.448;2023-11-21T13:11:14;8.53;93.52
68274;SHT30;55104;47.356;19.448;2023-11-21T13:14:17;8.61;93.51
68274;SHT30;55104;47.356;19.448;2023-11-21T13:17:20;8.59;93.23
68274;SHT30;55104;47.356;19.448;2023-11-21T13:20:26;8.61;92.96
68274;SHT30;55104;47.356;19.448;2023-11-21T13:23:28;8.63;92.74
68274;SHT30;55104;47.356;19.448;2023-11-21T13:26:31;8.66;92.59
68274;SHT30;55104;47.356;19.448;2023-11-21T13:29:35;8.61;93.01
68274;SHT30;55104;47.356;19.448;2023-11-21T13:32:37;8.59;92.83
68274;SHT30;55104;47.356;19.448;2023-11-21T13:35:39;8.60;92.66
68274;SHT30;55104;47.356;19.448;2023-11-21T13:38:44;8.57;93.01
68274;SHT30;55104;47.356;19.448;2023-11-21T13:41:48;8.57;92.97
68274;SHT30;55104;47.356;19.448;2023-11-21T13:44:57;8.52;93.21
68274;SHT30;55104;47.356;19.448;2023-11-21T13:47:59;8.53;93.42
68274;SHT30;55104;47.356;19.448;2023-11-21T13:51:02;8.54;93.43
68274;SHT30;55104;47.356;19.448;2023-11-21T13:54:14;8.63;92.96
68274;SHT30;55104;47.356;19.448;2023-11-21T13:57:16;8.66;92.79
68274;SHT30;55104;47.356;19.448;2023-11-21T14:00:19;8.60;92.99
68274;SHT30;55104;47.356;19.448;2023-11-21T14:03:39;8.57;93.15
68274;SHT30;55104;47.356;19.448;2023-11-21T14:06:52;8.46;93.41
68274;SHT30;55104;47.356;19.448;2023-11-21T14:09:57;8.43;93.41
68274;SHT30;55104;47.356;19.448;2023-11-21T14:13:00;8.37;93.53
68274;SHT30;55104;47.356;19.448;2023-11-21T14:16:02;8.24;93.88
68274;SHT30;55104;47.356;19.448;2023-11-21T14:19:08;8.18;94.16
68274;SHT30;55104;47.356;19.448;2023-11-21T14:22:19;8.12;94.45
68274;SHT30;55104;47.356;19.448;2023-11-21T14:25:22;8.05;94.72
68274;SHT30;55104;47.356;19.448;2023-11-21T14:28:25;7.99;94.98
68274;SHT30;55104;47.356;19.448;2023-11-21T14:31:27;7.92;95.18
68274;SHT30;55104;47.356;19.448;2023-11-21T14:34:32;7.81;95.52
68274;SHT30;55104;47.356;19.448;2023-11-21T14:37:34;7.67;95.68
68274;SHT30;55104;47.356;19.448;2023-11-21T14:40:37;7.56;95.78
68274;SHT30;55104;47.356;19.448;2023-11-21T14:43:39;7.43;96.17
68274;SHT30;55104;47.356;19.448;2023-11-21T14:46:42;7.30;96.65
68274;SHT30;55104;47.356;19.448;2023-11-21T14:49:49;7.20;96.94
68274;SHT30;55104;47.356;19.448;2023-11-21T14:52:57;7.08;97.33
68274;SHT30;55104;47.356;19.448;2023-11-21T14:56:01;6.95;97.44
68274;SHT30;55104;47.356;19.448;2023-11-21T14:59:06;6.83;97.96
68274;SHT30;55104;47.356;19.448;2023-11-21T15:02:14;6.70;97.93
68274;SHT30;55104;47.356;19.448;2023-11-21T15:05:17;6.60;98.02
68274;SHT30;55104;47.356;19.448;2023-11-21T15:08:21;6.53;98.61
68274;SHT30;55104;47.356;19.448;2023-11-21T15:11:28;6.49;98.73
68274;SHT30;55104;47.356;19.448;2023-11-21T15:14:33;6.61;98.71
68274;SHT30;55104;47.356;19.448;2023-11-21T15:17:38;6.57;99.06
68274;SHT30;55104;47.356;19.448;2023-11-21T15:20:42;6.54;99.17
68274;SHT30;55104;47.356;19.448;2023-11-21T15:23:45;6.53;99.30
68274;SHT30;55104;47.356;19.448;2023-11-21T15:26:48;6.54;99.27
68274;SHT30;55104;47.356;19.448;2023-11-21T15:29:51;6.53;99.48
68274;SHT30;55104;47.356;19.448;2023-11-21T15:32:53;6.58;99.47
68274;SHT30;55104;47.356;19.448;2023-11-21T15:35:55;6.54;99.56
68274;SHT30;55104;47.356;19.448;2023-11-21T15:38:57;6.53;99.60
68274;SHT30;55104;47.356;19.448;2023-11-21T15:42:00;6.52;99.69
68274;SHT30;55104;47.356;19.448;2023-11-21T15:45:03;6.44;99.62
68274;SHT30;55104;47.356;19.448;2023-11-21T15:48:09;6.47;99.59
68274;SHT30;55104;47.356;19.448;2023-11-21T15:51:12;6.47;99.58
68274;SHT30;55104;47.356;19.448;2023-11-21T15:54:14;6.57;99.32
68274;SHT30;55104;47.356;19.448;2023-11-21T15:57:16;6.61;99.01
68274;SHT30;55104;47.356;19.448;2023-11-21T16:00:20;6.63;98.77
68274;SHT30;55104;47.356;19.448;2023-11-21T16:03:25;6.66;98.52
68274;SHT30;55104;47.356;19.448;2023-11-21T16:06:27;6.67;98.15
68274;SHT30;55104;47.356;19.448;2023-11-21T16:09:31;6.67;97.93
68274;SHT30;55104;47.356;19.448;2023-11-21T16:12:33;6.64;97.95
68274;SHT30;55104;47.356;19.448;2023-11-21T16:15:36;6.57;97.87
68274;SHT30;55104;47.356;19.448;2023-11-21T16:18:38;6.49;97.90
68274;SHT30;55104;47.356;19.448;2023-11-21T16:21:40;6.46;98.09
68274;SHT30;55104;47.356;19.448;2023-11-21T16:24:42;6.44;98.07
68274;SHT30;55104;47.356;19.448;2023-11-21T16:27:44;6.39;98.16
68274;SHT30;55104;47.356;19.448;2023-11-21T16:30:47;6.42;98.15
68274;SHT30;55104;47.356;19.448;2023-11-21T16:33:50;6.40;98.13
68274;SHT30;55104;47.356;19.448;2023-11-21T16:36:52;6.39;98.13
68274;SHT30;55104;47.356;19.448;2023-11-21T16:39:54;6.39;98.39
68274;SHT30;55104;47.356;19.448;2023-11-21T16:42:56;6.40;98.45
68274;SHT30;55104;47.356;19.448;2023-11-21T16:45:59;6.43;98.41
68274;SHT30;55104;47.356;19.448;2023-11-21T16:49:01;6.44;98.33
68274;SHT30;55104;47.356;19.448;2023-11-21T16:52:04;6.58;97.67
68274;SHT30;55104;47.356;19.448;2023-11-21T16:55:09;6.64;97.42
68274;SHT30;55104;47.356;19.448;2023-11-21T16:58:12;6.69;97.10
68274;SHT30;55104;47.356;19.448;2023-11-21T17:01:14;6.73;96.92
68274;SHT30;55104;47.356;19.448;2023-11-21T17:04:16;6.79;96.44
68274;SHT30;55104;47.356;19.448;2023-11-21T17:07:21;6.87;96.24
68274;SHT30;55104;47.356;19.448;2023-11-21T17:10:24;6.92;96.05
68274;SHT30;55104;47.356;19.448;2023-11-21T17:13:26;6.97;95.73
68274;SHT30;55104;47.356;19.448;2023-11-21T17:16:31;7.11;95.54
68274;SHT30;55104;47.356;19.448;2023-11-21T17:19:33;7.09;95.30
68274;SHT30;55104;47.356;19.448;2023-11-21T17:22:38;7.12;95.53
68274;SHT30;55104;47.356;19.448;2023-11-21T17:25:42;7.12;95.39
68274;SHT30;55104;47.356;19.448;2023-11-21T17:28:44;7.11;95.15
68274;SHT30;55104;47.356;19.448;2023-11-21T17:31:46;7.09;95.22
68274;SHT30;55104;47.356;19.448;2023-11-21T17:34:49;7.19;94.43
68274;SHT30;55104;47.356;19.448;2023-11-21T17:37:51;7.29;93.35
68274;SHT30;55104;47.356;19.448;2023-11-21T17:40:53;7.37;92.30
68274;SHT30;55104;47.356;19.448;2023-11-21T17:43:56;7.52;91.28
68274;SHT30;55104;47.356;19.448;2023-11-21T17:46:58;7.54;91.26
68274;SHT30;55104;47.356;19.448;2023-11-21T17:50:01;7.57;91.08
68274;SHT30;55104;47.356;19.448;2023-11-21T17:53:03;7.67;90.21
68274;SHT30;55104;47.356;19.448;2023-11-21T17:56:12;7.64;90.94
68274;SHT30;55104;47.356;19.448;2023-11-21T17:59:17;7.60;90.86
68274;SHT30;55104;47.356;19.448;2023-11-21T18:02:19;7.56;91.23
68274;SHT30;55104;47.356;19.448;2023-11-21T18:05:21;7.43;91.65
68274;SHT30;55104;47.356;19.448;2023-11-21T18:08:25;7.43;91.51
68274;SHT30;55104;47.356;19.448;2023-11-21T18:11:27;7.37;92.11
68274;SHT30;55104;47.356;19.448;2023-11-21T18:14:29;7.39;91.85
68274;SHT30;55104;47.356;19.448;2023-11-21T18:17:32;7.30;92.56
68274;SHT30;55104;47.356;19.448;2023-11-21T18:20:34;7.25;92.84
68274;SHT30;55104;47.356;19.448;2023-11-21T18:23:36;7.23;93.04
68274;SHT30;55104;47.356;19.448;2023-11-21T18:26:38;7.20;93.40
68274;SHT30;55104;47.356;19.448;2023-11-21T18:29:41;7.12;93.80
68274;SHT30;55104;47.356;19.448;2023-11-21T18:32:43;7.08;94.11
68274;SHT30;55104;47.356;19.448;2023-11-21T18:35:45;7.01;94.45
68274;SHT30;55104;47.356;19.448;2023-11-21T18:38:48;6.90;94.89
68274;SHT30;55104;47.356;19.448;2023-11-21T18:41:52;6.85;94.99
68274;SHT30;55104;47.356;19.448;2023-11-21T18:44:54;6.84;95.29
68274;SHT30;55104;47.356;19.448;2023-11-21T18:48:01;6.77;95.39
68274;SHT30;55104;47.356;19.448;2023-11-21T18:51:03;6.77;95.49
68274;SHT30;55104;47.356;19.448;2023-11-21T18:54:05;6.76;95.57
68274;SHT30;55104;47.356;19.448;2023-11-21T18:57:07;6.70;95.82
68274;SHT30;55104;47.356;19.448;2023-11-21T19:00:10;6.67;96.02
68274;SHT30;55104;47.356;19.448;2023-11-21T19:03:14;6.74;96.06
68274;SHT30;55104;47.356;19.448;2023-11-21T19:06:17;6.88;95.79
68274;SHT30;55104;47.356;19.448;2023-11-21T19:09:19;6.80;96.02
68274;SHT30;55104;47.356;19.448;2023-11-21T19:12:22;6.80;96.00
68274;SHT30;55104;47.356;19.448;2023-11-21T19:15:24;6.71;96.12
68274;SHT30;55104;47.356;19.448;2023-11-21T19:18:27;6.73;96.20
68274;SHT30;55104;47.356;19.448;2023-11-21T19:21:29;6.69;96.41
68274;SHT30;55104;47.356;19.448;2023-11-21T19:24:31;6.60;96.70
68274;SHT30;55104;47.356;19.448;2023-11-21T19:27:34;6.56;96.96
68274;SHT30;55104;47.356;19.448;2023-11-21T19:30:39;6.57;97.07